createdAt,value
2019-03-08T00:01:21.451Z,9.13
2019-03-08T00:02:21.500Z,9.26
2019-03-08T00:04:14.493Z,9.22
2019-03-08T00:05:14.551Z,9.21
2019-03-08T00:07:07.539Z,9.23
2019-03-08T00:08:07.591Z,9.28
2019-03-08T00:10:00.575Z,9.29
2019-03-08T00:11:00.621Z,9.18
2019-03-08T00:12:53.612Z,9.36
2019-03-08T00:13:53.662Z,9.26
2019-03-08T00:15:46.647Z,9.28
2019-03-08T00:16:46.692Z,9.22
2019-03-08T00:18:39.687Z,9.22
2019-03-08T00:19:39.746Z,9.21
2019-03-08T00:21:32.731Z,9.21
2019-03-08T00:22:32.777Z,9.23
2019-03-08T00:24:25.763Z,9.21
2019-03-08T00:25:25.812Z,9.23
2019-03-08T00:27:18.790Z,9.22
2019-03-08T00:28:18.848Z,9.21
2019-03-08T00:30:11.828Z,9.16
2019-03-08T00:31:11.881Z,9.06
2019-03-08T00:33:04.855Z,9.04
2019-03-08T00:34:04.912Z,9.06
2019-03-08T00:35:57.896Z,9.03
2019-03-08T00:36:57.946Z,9.02
2019-03-08T00:38:50.922Z,9.00
2019-03-08T00:39:50.977Z,9.04
2019-03-08T00:41:43.961Z,8.94
2019-03-08T00:42:44.012Z,8.92
2019-03-08T00:44:36.992Z,8.82
2019-03-08T00:45:37.045Z,8.74
2019-03-08T00:47:30.039Z,8.76
2019-03-08T00:48:30.103Z,8.82
2019-03-08T00:50:23.078Z,8.73
2019-03-08T00:51:23.128Z,8.67
2019-03-08T00:53:16.114Z,8.74
2019-03-08T00:54:16.168Z,8.60
2019-03-08T00:56:09.150Z,8.60
2019-03-08T00:57:09.214Z,8.53
2019-03-08T00:59:02.172Z,8.55
2019-03-08T01:00:02.232Z,8.52
2019-03-08T01:01:55.722Z,8.49
2019-03-08T01:02:55.772Z,8.52
2019-03-08T01:04:48.764Z,8.48
2019-03-08T01:05:48.803Z,8.61
2019-03-08T01:07:41.785Z,8.63
2019-03-08T01:08:41.851Z,8.60
2019-03-08T01:10:34.822Z,8.56
2019-03-08T01:11:34.866Z,8.60
2019-03-08T01:13:27.850Z,8.74
2019-03-08T01:14:27.907Z,8.69
2019-03-08T01:16:20.896Z,8.73
2019-03-08T01:17:20.947Z,8.74
2019-03-08T01:19:13.922Z,8.79
2019-03-08T01:20:13.978Z,8.91
2019-03-08T01:22:06.965Z,8.78
2019-03-08T01:23:07.011Z,8.82
2019-03-08T01:24:59.993Z,8.76
2019-03-08T01:26:00.043Z,8.82
2019-03-08T01:27:53.025Z,8.82
2019-03-08T01:28:53.074Z,8.81
2019-03-08T01:30:46.062Z,8.74
2019-03-08T01:31:46.107Z,8.79
2019-03-08T01:33:39.085Z,8.82
2019-03-08T01:34:39.139Z,8.82
2019-03-08T01:36:32.149Z,8.71
2019-03-08T01:37:32.172Z,8.74
2019-03-08T01:39:25.154Z,8.67
2019-03-08T01:40:25.235Z,8.70
2019-03-08T01:42:18.212Z,8.67
2019-03-08T01:43:18.265Z,8.60
2019-03-08T01:45:11.245Z,8.64
2019-03-08T01:46:11.319Z,8.60
2019-03-08T01:48:04.281Z,8.56
2019-03-08T01:49:04.333Z,8.53
2019-03-08T01:50:57.310Z,8.60
2019-03-08T01:51:57.362Z,8.60
2019-03-08T01:53:50.345Z,8.63
2019-03-08T01:54:50.405Z,8.56
2019-03-08T01:56:43.387Z,8.56
2019-03-08T01:57:43.433Z,8.53
2019-03-08T01:59:36.415Z,8.41
2019-03-08T02:00:36.473Z,8.37
2019-03-08T02:02:30.961Z,8.42
2019-03-08T02:03:31.014Z,8.38
2019-03-08T02:05:23.998Z,8.33
2019-03-08T02:06:24.053Z,8.31
2019-03-08T02:08:17.032Z,8.34
2019-03-08T02:09:17.106Z,8.34
2019-03-08T02:11:10.084Z,8.31
2019-03-08T02:12:10.138Z,8.30
2019-03-08T02:14:03.111Z,8.38
2019-03-08T02:15:03.171Z,8.28
2019-03-08T02:16:56.155Z,8.30
2019-03-08T02:17:56.205Z,8.23
2019-03-08T02:19:49.167Z,8.26
2019-03-08T02:20:49.239Z,8.28
2019-03-08T02:22:42.212Z,8.27
2019-03-08T02:23:42.263Z,8.24
2019-03-08T02:25:35.240Z,8.23
2019-03-08T02:26:35.293Z,8.28
2019-03-08T02:28:28.277Z,8.28
2019-03-08T02:29:28.325Z,8.27
2019-03-08T02:31:21.316Z,8.28
2019-03-08T02:32:21.367Z,8.27
2019-03-08T02:34:14.348Z,8.34
2019-03-08T02:35:14.398Z,8.34
2019-03-08T02:37:07.406Z,8.34
2019-03-08T02:38:07.431Z,8.31
2019-03-08T02:40:00.410Z,8.33
2019-03-08T02:41:00.486Z,8.34
2019-03-08T02:42:53.452Z,8.31
2019-03-08T02:43:53.503Z,8.33
2019-03-08T02:45:46.485Z,8.42
2019-03-08T02:46:46.542Z,8.48
2019-03-08T02:48:39.530Z,8.34
2019-03-08T02:49:39.581Z,8.41
2019-03-08T02:51:32.554Z,8.44
2019-03-08T02:52:32.605Z,8.55
2019-03-08T02:54:25.590Z,8.52
2019-03-08T02:55:25.638Z,8.51
2019-03-08T02:57:18.627Z,8.53
2019-03-08T02:58:18.674Z,8.53
2019-03-08T03:00:11.656Z,8.52
2019-03-08T03:01:11.714Z,8.51
2019-03-08T03:03:04.695Z,8.52
2019-03-08T03:04:04.746Z,8.51
2019-03-08T03:05:57.723Z,8.55
2019-03-08T03:06:57.783Z,8.49
2019-03-08T03:08:50.786Z,8.56
2019-03-08T03:09:50.810Z,8.48
2019-03-08T03:11:43.796Z,8.52
2019-03-08T03:12:43.865Z,8.51
2019-03-08T03:14:36.834Z,8.51
2019-03-08T03:15:36.879Z,8.58
2019-03-08T03:17:29.867Z,8.58
2019-03-08T03:18:29.913Z,8.53
2019-03-08T03:20:22.889Z,8.66
2019-03-08T03:21:22.944Z,8.60
2019-03-08T03:23:15.933Z,8.61
2019-03-08T03:24:15.981Z,8.53
2019-03-08T03:26:08.959Z,8.63
2019-03-08T03:27:09.014Z,8.60
2019-03-08T03:29:02.001Z,8.55
2019-03-08T03:30:02.056Z,8.64
2019-03-08T03:31:55.039Z,8.56
2019-03-08T03:32:55.123Z,8.60
2019-03-08T03:34:48.065Z,8.67
2019-03-08T03:35:48.120Z,8.66
2019-03-08T03:37:41.108Z,8.63
2019-03-08T03:38:41.151Z,8.55
2019-03-08T03:40:34.139Z,8.56
2019-03-08T03:41:34.193Z,8.60
2019-03-08T03:43:27.183Z,8.55
2019-03-08T03:44:27.244Z,8.76
2019-03-08T03:46:20.220Z,8.69
2019-03-08T03:47:20.265Z,8.70
2019-03-08T03:49:13.259Z,8.70
2019-03-08T03:50:13.306Z,8.60
2019-03-08T03:52:06.289Z,8.60
2019-03-08T03:53:06.339Z,8.73
2019-03-08T03:54:59.321Z,8.60
2019-03-08T03:55:59.380Z,8.56
2019-03-08T03:57:52.359Z,8.61
2019-03-08T03:58:52.409Z,8.61
2019-03-08T04:00:45.385Z,8.63
2019-03-08T04:01:45.441Z,8.56
2019-03-08T04:03:38.433Z,8.63
2019-03-08T04:04:38.479Z,8.69
2019-03-08T04:06:31.454Z,8.60
2019-03-08T04:07:31.509Z,8.61
2019-03-08T04:09:24.501Z,8.58
2019-03-08T04:10:24.543Z,8.61
2019-03-08T04:12:17.544Z,8.61
2019-03-08T04:13:17.577Z,8.61
2019-03-08T04:15:10.559Z,8.58
2019-03-08T04:16:10.631Z,8.56
2019-03-08T04:18:03.606Z,8.55
2019-03-08T04:19:03.658Z,8.60
2019-03-08T04:20:56.654Z,8.51
2019-03-08T04:21:56.689Z,8.60
2019-03-08T04:23:49.679Z,8.61
2019-03-08T04:24:49.720Z,8.58
2019-03-08T04:26:42.702Z,8.55
2019-03-08T04:27:42.756Z,8.58
2019-03-08T04:29:35.752Z,8.67
2019-03-08T04:30:35.797Z,8.67
2019-03-08T04:32:28.779Z,8.61
2019-03-08T04:33:28.833Z,8.60
2019-03-08T04:35:21.808Z,8.58
2019-03-08T04:36:21.863Z,8.56
2019-03-08T04:38:14.853Z,8.52
2019-03-08T04:39:14.902Z,8.51
2019-03-08T04:41:07.882Z,8.52
2019-03-08T04:42:07.932Z,8.51
2019-03-08T04:44:00.922Z,8.46
2019-03-08T04:45:00.965Z,8.53
2019-03-08T04:46:53.946Z,8.45
2019-03-08T04:47:54.007Z,8.49
2019-03-08T04:49:46.984Z,8.52
2019-03-08T04:50:47.038Z,8.55
2019-03-08T04:52:40.029Z,8.56
2019-03-08T04:53:40.071Z,8.52
2019-03-08T04:55:33.053Z,8.55
2019-03-08T04:56:33.110Z,8.51
2019-03-08T04:58:26.092Z,8.53
2019-03-08T04:59:26.142Z,8.55
2019-03-08T05:01:19.120Z,8.53
2019-03-08T05:02:19.176Z,8.58
2019-03-08T05:04:12.159Z,8.52
2019-03-08T05:05:12.207Z,8.53
2019-03-08T05:07:05.190Z,8.55
2019-03-08T05:08:05.240Z,8.48
2019-03-08T05:09:58.229Z,8.60
2019-03-08T05:10:58.277Z,8.52
2019-03-08T05:12:51.265Z,8.55
2019-03-08T05:13:51.314Z,8.53
2019-03-08T05:15:44.300Z,8.48
2019-03-08T05:16:44.346Z,8.52
2019-03-08T05:18:37.333Z,8.46
2019-03-08T05:19:37.387Z,8.55
2019-03-08T05:21:30.779Z,8.55
2019-03-08T05:22:30.446Z,8.51
2019-03-08T05:24:23.430Z,8.51
2019-03-08T05:25:23.479Z,8.51
2019-03-08T05:27:16.468Z,8.44
2019-03-08T05:28:16.524Z,8.41
2019-03-08T05:30:09.507Z,8.55
2019-03-08T05:31:09.552Z,8.38
2019-03-08T05:33:02.533Z,8.46
2019-03-08T05:34:02.590Z,8.46
2019-03-08T05:35:55.559Z,8.38
2019-03-08T05:36:55.617Z,8.37
2019-03-08T05:38:48.601Z,8.45
2019-03-08T05:39:48.651Z,8.38
2019-03-08T05:41:41.637Z,8.38
2019-03-08T05:42:41.689Z,8.58
2019-03-08T05:44:34.675Z,8.45
2019-03-08T05:45:34.723Z,8.42
2019-03-08T05:47:27.710Z,8.48
2019-03-08T05:48:27.758Z,8.45
2019-03-08T05:50:20.745Z,8.41
2019-03-08T05:51:20.793Z,8.52
2019-03-08T05:53:13.779Z,8.44
2019-03-08T05:54:13.831Z,8.42
2019-03-08T05:56:06.854Z,8.34
2019-03-08T05:57:06.910Z,8.41
2019-03-08T05:58:59.897Z,8.34
2019-03-08T05:59:59.947Z,8.56
2019-03-08T06:01:53.434Z,8.51
2019-03-08T06:02:53.487Z,8.37
2019-03-08T06:04:46.471Z,8.38
2019-03-08T06:05:46.519Z,8.51
2019-03-08T06:07:39.520Z,8.41
2019-03-08T06:08:39.571Z,8.41
2019-03-08T06:10:32.546Z,8.45
2019-03-08T06:11:32.603Z,8.41
2019-03-08T06:13:25.584Z,8.44
2019-03-08T06:14:25.631Z,8.41
2019-03-08T06:16:18.653Z,8.36
2019-03-08T06:17:18.699Z,8.33
2019-03-08T06:19:11.677Z,8.31
2019-03-08T06:20:11.729Z,8.41
2019-03-08T06:22:04.708Z,8.30
2019-03-08T06:23:04.885Z,8.33
2019-03-08T06:24:57.746Z,8.33
2019-03-08T06:25:57.793Z,8.30
2019-03-08T06:27:50.785Z,8.37
2019-03-08T06:28:50.826Z,8.31
2019-03-08T06:30:43.803Z,8.31
2019-03-08T06:31:43.860Z,8.31
2019-03-08T06:33:36.845Z,8.30
2019-03-08T06:34:36.894Z,8.28
2019-03-08T06:36:29.874Z,8.30
2019-03-08T06:37:29.924Z,8.26
2019-03-08T06:39:22.907Z,8.26
2019-03-08T06:40:22.952Z,8.27
2019-03-08T06:42:15.937Z,8.28
2019-03-08T06:43:15.996Z,8.26
2019-03-08T06:45:08.979Z,8.31
2019-03-08T06:46:09.034Z,8.31
2019-03-08T06:48:02.020Z,8.30
2019-03-08T06:49:02.068Z,8.28
2019-03-08T06:50:55.040Z,8.28
2019-03-08T06:51:55.103Z,8.16
2019-03-08T06:53:48.088Z,8.12
2019-03-08T06:54:48.134Z,8.09
2019-03-08T06:56:41.123Z,8.01
2019-03-08T06:57:41.176Z,8.01
2019-03-08T06:59:34.162Z,8.06
2019-03-08T07:00:34.210Z,7.98
2019-03-08T07:02:27.695Z,8.00
2019-03-08T07:03:27.747Z,8.03
2019-03-08T07:05:20.733Z,8.03
2019-03-08T07:06:20.783Z,8.09
2019-03-08T07:08:13.784Z,8.12
2019-03-08T07:09:13.815Z,8.18
2019-03-08T07:11:06.795Z,8.23
2019-03-08T07:12:06.848Z,8.24
2019-03-08T07:13:59.833Z,8.28
2019-03-08T07:14:59.881Z,8.26
2019-03-08T07:16:52.863Z,8.28
2019-03-08T07:17:52.916Z,8.30
2019-03-08T07:19:45.908Z,8.34
2019-03-08T07:20:45.955Z,8.31
2019-03-08T07:22:38.934Z,8.33
2019-03-08T07:23:38.989Z,8.38
2019-03-08T07:25:31.984Z,8.42
2019-03-08T07:26:32.034Z,8.37
2019-03-08T07:28:25.018Z,8.48
2019-03-08T07:29:25.063Z,8.44
2019-03-08T07:31:18.052Z,8.61
2019-03-08T07:32:18.104Z,8.71
2019-03-08T07:34:11.214Z,9.10
2019-03-08T07:35:11.161Z,9.39
2019-03-08T07:37:04.140Z,9.98
2019-03-08T07:38:04.195Z,11.05
2019-03-08T07:39:57.182Z,12.03
2019-03-08T07:40:57.230Z,12.32
2019-03-08T07:42:50.203Z,12.25
2019-03-08T07:43:50.265Z,12.27
2019-03-08T07:45:44.305Z,12.78
2019-03-08T07:46:43.303Z,12.78
2019-03-08T07:48:36.289Z,13.54
2019-03-08T07:49:36.346Z,13.79
2019-03-08T07:51:29.334Z,13.97
2019-03-08T07:52:29.440Z,14.18
2019-03-08T07:54:22.363Z,14.26
2019-03-08T07:55:22.422Z,14.32
2019-03-08T07:57:15.413Z,13.08
2019-03-08T07:58:15.464Z,12.28
2019-03-08T08:00:08.455Z,11.15
2019-03-08T08:01:08.507Z,10.76
2019-03-08T08:03:03.757Z,10.28
2019-03-08T08:04:01.569Z,10.30
2019-03-08T08:05:58.064Z,10.16
2019-03-08T08:06:54.594Z,10.16
2019-03-08T08:08:51.610Z,10.16
2019-03-08T08:09:47.634Z,10.12
2019-03-08T08:11:40.625Z,9.92
2019-03-08T08:12:40.672Z,9.87
2019-03-08T08:14:39.495Z,9.84
2019-03-08T08:15:33.718Z,9.76
2019-03-08T08:17:26.706Z,9.69
2019-03-08T08:18:26.759Z,9.74
2019-03-08T08:20:19.759Z,9.84
2019-03-08T08:21:19.816Z,10.35
2019-03-08T08:23:12.808Z,10.87
2019-03-08T08:24:12.855Z,10.57
2019-03-08T08:26:05.844Z,10.26
2019-03-08T08:27:07.121Z,10.25
2019-03-08T08:28:58.900Z,10.23
2019-03-08T08:29:58.935Z,10.25
2019-03-08T08:31:51.921Z,10.48
2019-03-08T08:32:51.981Z,12.18
2019-03-08T08:34:44.965Z,13.00
2019-03-08T08:35:45.020Z,12.40
2019-03-08T08:37:38.013Z,12.64
2019-03-08T08:38:38.062Z,13.18
2019-03-08T08:40:31.044Z,12.57
2019-03-08T08:41:31.103Z,11.72
2019-03-08T08:43:24.111Z,10.67
2019-03-08T08:44:24.143Z,10.13
2019-03-08T08:46:17.137Z,9.64
2019-03-08T08:47:17.176Z,9.34
2019-03-08T08:49:10.181Z,8.85
2019-03-08T08:50:10.227Z,8.87
2019-03-08T08:52:03.213Z,8.51
2019-03-08T08:53:03.265Z,8.28
2019-03-08T08:54:56.242Z,8.31
2019-03-08T08:55:56.299Z,8.30
2019-03-08T08:57:49.290Z,8.13
2019-03-08T08:58:49.341Z,8.18
2019-03-08T09:00:42.322Z,8.10
2019-03-08T09:01:42.378Z,8.18
2019-03-08T09:03:35.368Z,8.09
2019-03-08T09:04:35.414Z,8.28
2019-03-08T09:06:28.393Z,8.44
2019-03-08T09:07:28.450Z,8.42
2019-03-08T09:09:21.437Z,8.46
2019-03-08T09:10:21.488Z,8.41
2019-03-08T09:12:14.490Z,8.53
2019-03-08T09:13:14.521Z,8.56
2019-03-08T09:15:07.514Z,8.79
2019-03-08T09:16:07.559Z,8.87
2019-03-08T09:18:00.545Z,9.04
2019-03-08T09:19:00.598Z,9.19
2019-03-08T09:20:53.582Z,9.37
2019-03-08T09:21:53.638Z,9.40
2019-03-08T09:23:46.629Z,9.47
2019-03-08T09:24:46.678Z,9.65
2019-03-08T09:26:39.651Z,9.68
2019-03-08T09:27:39.713Z,9.77
2019-03-08T09:29:41.040Z,9.86
2019-03-08T09:30:32.748Z,9.98
2019-03-08T09:32:25.729Z,10.07
2019-03-08T09:33:25.787Z,10.10
2019-03-08T09:35:18.785Z,10.41
2019-03-08T09:36:18.835Z,10.48
2019-03-08T09:38:11.829Z,10.59
2019-03-08T09:39:11.870Z,10.68
2019-03-08T09:41:04.854Z,10.67
2019-03-08T09:43:17.874Z,10.53
2019-03-08T09:47:02.525Z,10.56
2019-03-08T09:48:02.572Z,10.49
2019-03-08T09:49:55.561Z,10.64
2019-03-08T09:50:55.610Z,10.57
2019-03-08T09:52:48.605Z,10.51
2019-03-08T09:53:48.645Z,10.59
2019-03-08T09:55:41.635Z,10.87
2019-03-08T09:56:41.692Z,10.84
2019-03-08T09:58:34.695Z,10.84
2019-03-08T09:59:34.746Z,10.99
2019-03-08T10:01:27.723Z,11.07
2019-03-08T10:02:27.780Z,11.05
2019-03-08T10:04:20.767Z,11.11
2019-03-08T10:05:20.818Z,11.25
2019-03-08T10:07:13.818Z,11.45
2019-03-08T10:08:13.856Z,11.44
2019-03-08T10:10:06.843Z,11.43
2019-03-08T10:11:06.888Z,11.45
2019-03-08T10:12:59.870Z,11.48
2019-03-08T10:13:59.946Z,11.36
2019-03-08T10:15:52.969Z,11.43
2019-03-08T10:16:52.981Z,11.48
2019-03-08T10:18:45.954Z,11.27
2019-03-08T10:19:46.044Z,11.17
2019-03-08T10:21:38.984Z,11.51
2019-03-08T10:22:39.038Z,11.57
2019-03-08T10:24:32.034Z,11.91
2019-03-08T10:25:32.085Z,12.06
2019-03-08T10:27:25.070Z,12.24
2019-03-08T10:28:25.127Z,12.22
2019-03-08T10:30:18.119Z,12.02
2019-03-08T10:31:18.174Z,11.90
2019-03-08T10:33:11.151Z,11.95
2019-03-08T10:34:11.209Z,11.70
2019-03-08T10:36:04.195Z,11.59
2019-03-08T10:37:04.247Z,11.60
2019-03-08T10:38:57.245Z,11.52
2019-03-08T10:39:57.286Z,11.55
2019-03-08T10:41:50.296Z,11.47
2019-03-08T10:42:50.333Z,11.43
2019-03-08T10:44:43.331Z,11.15
2019-03-08T10:45:43.378Z,11.10
2019-03-08T10:47:36.359Z,11.08
2019-03-08T10:48:36.417Z,11.00
2019-03-08T10:50:29.426Z,11.18
2019-03-08T10:51:29.463Z,11.22
2019-03-08T10:53:22.441Z,11.51
2019-03-08T10:54:22.508Z,11.68
2019-03-08T10:56:15.487Z,11.73
2019-03-08T10:57:15.539Z,11.72
2019-03-08T10:59:08.534Z,11.23
2019-03-08T11:00:08.591Z,11.26
2019-03-08T11:02:02.091Z,11.33
2019-03-08T11:03:02.179Z,11.27
2019-03-08T11:04:55.137Z,11.26
2019-03-08T11:05:55.174Z,11.26
2019-03-08T11:07:48.166Z,11.17
2019-03-08T11:08:48.226Z,11.04
2019-03-08T11:10:41.246Z,10.90
2019-03-08T11:11:41.290Z,10.94
2019-03-08T11:13:42.805Z,10.89
2019-03-08T11:14:34.293Z,10.86
2019-03-08T11:16:27.285Z,11.02
2019-03-08T11:17:27.605Z,10.96
2019-03-08T11:19:20.311Z,11.25
2019-03-08T11:20:20.368Z,11.26
2019-03-08T11:22:13.354Z,11.25
2019-03-08T11:23:13.406Z,11.26
2019-03-08T11:25:08.375Z,11.22
2019-03-08T11:26:06.442Z,11.23
2019-03-08T11:27:59.442Z,11.23
2019-03-08T11:28:59.478Z,11.19
2019-03-08T11:30:54.144Z,11.17
2019-03-08T11:31:52.527Z,11.44
2019-03-08T11:33:45.503Z,11.63
2019-03-08T11:34:51.951Z,11.70
2019-03-08T11:36:38.549Z,11.55
2019-03-08T11:37:38.601Z,11.41
2019-03-08T11:39:31.581Z,11.51
2019-03-08T11:40:31.639Z,11.57
2019-03-08T11:42:24.628Z,11.45
2019-03-08T11:43:24.677Z,11.45
2019-03-08T11:45:17.656Z,11.25
2019-03-08T11:46:17.710Z,11.22
2019-03-08T11:48:10.701Z,11.12
2019-03-08T11:49:11.726Z,11.00
2019-03-08T11:51:03.737Z,11.02
2019-03-08T11:52:03.790Z,10.96
2019-03-08T11:53:56.777Z,10.89
2019-03-08T11:54:56.826Z,11.10
2019-03-08T11:56:56.184Z,11.45
2019-03-08T11:57:49.865Z,11.57
2019-03-08T11:59:42.844Z,11.66
2019-03-08T12:00:42.901Z,11.72
2019-03-08T12:02:38.012Z,11.80
2019-03-08T12:03:36.446Z,11.84
2019-03-08T12:05:29.428Z,11.86
2019-03-08T12:06:29.482Z,11.90
2019-03-08T12:08:22.479Z,12.06
2019-03-08T12:09:22.530Z,12.12
2019-03-08T12:11:16.522Z,12.22
2019-03-08T12:12:15.575Z,12.22
2019-03-08T12:14:08.566Z,12.54
2019-03-08T12:15:08.612Z,12.67
2019-03-08T12:17:01.590Z,12.93
2019-03-08T12:18:01.647Z,13.20
2019-03-08T12:19:54.639Z,13.49
2019-03-08T12:20:54.687Z,13.47
2019-03-08T12:22:47.677Z,13.52
2019-03-08T12:23:47.733Z,13.35
2019-03-08T12:25:40.963Z,13.15
2019-03-08T12:26:40.764Z,12.95
2019-03-08T12:28:33.756Z,12.68
2019-03-08T12:29:33.801Z,12.70
2019-03-08T12:31:26.790Z,12.46
2019-03-08T12:32:26.848Z,12.28
2019-03-08T12:34:19.842Z,11.83
2019-03-08T12:35:19.923Z,11.60
2019-03-08T12:37:12.868Z,11.40
2019-03-08T12:38:12.927Z,11.22
2019-03-08T12:40:05.968Z,11.18
2019-03-08T12:41:05.975Z,10.93
2019-03-08T12:43:07.604Z,10.72
2019-03-08T12:43:59.076Z,10.69
2019-03-08T12:45:53.025Z,10.69
2019-03-08T12:46:52.106Z,10.60
2019-03-08T12:48:45.200Z,10.59
2019-03-08T12:49:46.227Z,10.49
2019-03-08T12:51:38.183Z,10.26
2019-03-08T12:52:38.224Z,10.31
2019-03-08T12:54:31.275Z,10.25
2019-03-08T12:55:31.311Z,10.20
2019-03-08T12:57:24.269Z,10.20
2019-03-08T12:58:24.329Z,10.26
2019-03-08T13:00:17.324Z,10.19
2019-03-08T13:01:17.355Z,10.30
2019-03-08T13:03:10.367Z,10.25
2019-03-08T13:04:10.407Z,10.53
2019-03-08T13:06:03.389Z,10.63
2019-03-08T13:07:03.433Z,10.51
2019-03-08T13:08:56.481Z,10.35
2019-03-08T13:09:56.481Z,10.49
2019-03-08T13:11:49.439Z,10.42
2019-03-08T13:12:49.493Z,10.31
2019-03-08T13:14:42.487Z,10.30
2019-03-08T13:15:42.544Z,10.34
2019-03-08T13:17:35.542Z,10.57
2019-03-08T13:18:35.577Z,10.69
2019-03-08T13:20:28.562Z,10.92
2019-03-08T13:21:28.616Z,10.96
2019-03-08T13:23:21.615Z,11.14
2019-03-08T13:24:21.668Z,11.23
2019-03-08T13:26:14.647Z,11.52
2019-03-08T13:27:14.710Z,11.73
2019-03-08T13:29:07.699Z,11.97
2019-03-08T13:30:07.752Z,11.86
2019-03-08T13:32:00.745Z,11.91
2019-03-08T13:33:00.790Z,12.02
2019-03-08T13:34:53.811Z,11.73
2019-03-08T13:35:53.827Z,11.57
2019-03-08T13:37:46.851Z,11.02
2019-03-08T13:38:46.889Z,10.68
2019-03-08T13:40:39.883Z,10.28
2019-03-08T13:41:39.929Z,9.99
2019-03-08T13:43:32.918Z,9.73
2019-03-08T13:44:32.964Z,9.56
2019-03-08T13:46:25.935Z,9.55
2019-03-08T13:47:26.003Z,9.55
2019-03-08T13:49:20.114Z,9.69
2019-03-08T13:50:19.039Z,9.74
2019-03-08T13:52:12.019Z,9.82
2019-03-08T13:53:12.076Z,9.86
2019-03-08T13:55:05.063Z,9.83
2019-03-08T13:56:05.117Z,9.94
2019-03-08T13:57:58.121Z,9.95
2019-03-08T13:58:58.153Z,9.95
2019-03-08T14:00:51.136Z,9.86
2019-03-08T14:01:51.195Z,9.84
2019-03-08T14:03:44.182Z,9.91
2019-03-08T14:04:44.233Z,9.89
2019-03-08T14:06:37.264Z,9.87
2019-03-08T14:07:37.274Z,9.92
2019-03-08T14:09:30.265Z,9.83
2019-03-08T14:10:30.316Z,9.91
2019-03-08T14:12:23.296Z,9.97
2019-03-08T14:13:23.355Z,10.02
2019-03-08T14:15:16.344Z,9.99
2019-03-08T14:16:16.389Z,10.01
2019-03-08T14:18:09.389Z,10.07
2019-03-08T14:19:09.427Z,10.13
2019-03-08T14:21:02.416Z,10.16
2019-03-08T14:22:02.477Z,10.22
2019-03-08T14:23:55.474Z,10.20
2019-03-08T14:24:55.515Z,10.31
2019-03-08T14:26:48.498Z,10.38
2019-03-08T14:27:48.554Z,10.44
2019-03-08T14:29:41.539Z,10.53
2019-03-08T14:30:41.590Z,10.54
2019-03-08T14:32:34.734Z,11.19
2019-03-08T14:33:38.178Z,11.23
2019-03-08T14:35:29.672Z,11.59
2019-03-08T14:36:27.662Z,12.13
2019-03-08T14:38:20.665Z,12.90
2019-03-08T14:39:20.702Z,12.76
2019-03-08T14:41:13.687Z,12.39
2019-03-08T14:42:15.528Z,12.10
2019-03-08T14:44:06.733Z,11.54
2019-03-08T14:45:07.740Z,11.29
2019-03-08T14:46:59.757Z,10.99
2019-03-08T14:47:59.818Z,10.97
2019-03-08T14:49:55.276Z,10.92
2019-03-08T14:50:52.857Z,10.90
2019-03-08T14:52:45.848Z,10.89
2019-03-08T14:53:45.897Z,10.93
2019-03-08T14:55:38.888Z,10.90
2019-03-08T14:56:38.937Z,10.96
2019-03-08T14:58:32.551Z,10.93
2019-03-08T14:59:31.983Z,10.84
2019-03-08T15:01:24.967Z,10.84
2019-03-08T15:02:25.018Z,10.89
2019-03-08T15:04:18.018Z,10.87
2019-03-08T15:05:19.219Z,10.99
2019-03-08T15:07:11.045Z,10.97
2019-03-08T15:08:13.594Z,10.92
2019-03-08T15:10:06.205Z,10.90
2019-03-08T15:11:04.141Z,10.79
2019-03-08T15:12:57.126Z,10.69
2019-03-08T15:13:58.984Z,10.78
2019-03-08T15:15:50.167Z,10.72
2019-03-08T15:16:50.220Z,10.76
2019-03-08T15:18:43.196Z,10.74
2019-03-08T15:19:43.260Z,10.74
2019-03-08T15:21:37.038Z,10.74
2019-03-08T15:22:38.000Z,10.67
2019-03-08T15:24:37.903Z,10.68
2019-03-08T15:25:31.392Z,10.60
2019-03-08T15:27:22.317Z,10.57
2019-03-08T15:28:22.375Z,10.54
2019-03-08T15:30:15.362Z,10.56
2019-03-08T15:31:15.410Z,10.54
2019-03-08T15:33:08.403Z,10.57
2019-03-08T15:34:08.449Z,10.64
2019-03-08T15:36:01.437Z,10.75
2019-03-08T15:37:01.485Z,10.76
2019-03-08T15:38:58.513Z,10.78
2019-03-08T15:39:54.523Z,10.78
2019-03-08T15:41:47.517Z,10.84
2019-03-08T15:42:47.566Z,10.94
2019-03-08T15:44:40.563Z,10.90
2019-03-08T15:45:44.398Z,10.99
2019-03-08T15:47:36.268Z,10.96
2019-03-08T15:48:33.644Z,11.02
2019-03-08T15:50:26.634Z,10.97
2019-03-08T15:51:26.984Z,10.81
2019-03-08T15:53:19.663Z,10.84
2019-03-08T15:54:19.717Z,10.82
2019-03-08T15:56:12.718Z,10.72
2019-03-08T15:57:12.770Z,10.81
2019-03-08T15:59:05.750Z,10.78
2019-03-08T16:00:05.806Z,10.84
2019-03-08T16:02:02.078Z,10.82
2019-03-08T16:02:58.918Z,10.81
2019-03-08T16:04:51.837Z,10.76
2019-03-08T16:05:51.879Z,10.72
2019-03-08T16:07:44.859Z,10.72
2019-03-08T16:08:44.918Z,10.68
2019-03-08T16:10:37.900Z,10.68
2019-03-08T16:11:37.954Z,10.64
2019-03-08T16:13:30.931Z,10.56
2019-03-08T16:14:30.992Z,10.63
2019-03-08T16:16:23.982Z,10.60
2019-03-08T16:17:24.030Z,10.56
2019-03-08T16:19:17.012Z,10.49
2019-03-08T16:20:17.067Z,10.54
2019-03-08T16:22:10.057Z,10.53
2019-03-08T16:23:10.107Z,10.57
2019-03-08T16:25:06.543Z,10.56
2019-03-08T16:26:03.156Z,10.54
2019-03-08T16:27:56.180Z,10.54
2019-03-08T16:28:56.225Z,10.53
2019-03-08T16:30:49.189Z,10.54
2019-03-08T16:31:49.255Z,10.57
2019-03-08T16:33:42.214Z,10.56
2019-03-08T16:34:42.493Z,10.38
2019-03-08T16:36:35.347Z,10.44
2019-03-08T16:37:35.345Z,10.40
2019-03-08T16:39:28.303Z,10.49
2019-03-08T16:40:28.360Z,10.44
2019-03-08T16:42:21.356Z,10.49
2019-03-08T16:43:21.403Z,10.42
2019-03-08T16:45:14.391Z,10.51
2019-03-08T16:46:14.445Z,10.48
2019-03-08T16:48:07.415Z,10.46
2019-03-08T16:49:07.471Z,10.42
2019-03-08T16:51:01.253Z,10.46
2019-03-08T16:52:00.525Z,10.46
2019-03-08T16:53:54.103Z,10.51
2019-03-08T16:54:53.569Z,10.44
2019-03-08T16:56:46.541Z,10.34
2019-03-08T16:57:46.587Z,10.34
2019-03-08T16:59:39.571Z,10.23
2019-03-08T17:00:40.455Z,10.26
2019-03-08T17:02:33.126Z,10.30
2019-03-08T17:03:33.178Z,10.26
2019-03-08T17:05:26.168Z,10.30
2019-03-08T17:06:27.778Z,10.19
2019-03-08T17:08:19.186Z,10.30
2019-03-08T17:09:19.242Z,10.20
2019-03-08T17:11:12.234Z,10.20
2019-03-08T17:12:12.285Z,10.20
2019-03-08T17:14:05.266Z,10.16
2019-03-08T17:15:05.327Z,10.33
2019-03-08T17:16:58.341Z,10.23
2019-03-08T17:17:58.369Z,10.30
2019-03-08T17:19:51.351Z,10.30
2019-03-08T17:20:51.415Z,10.15
2019-03-08T17:22:44.394Z,10.17
2019-03-08T17:23:44.439Z,10.13
2019-03-08T17:25:37.431Z,10.20
2019-03-08T17:26:37.478Z,10.16
2019-03-08T17:28:30.459Z,10.22
2019-03-08T17:29:30.508Z,10.22
2019-03-08T17:31:23.503Z,10.17
2019-03-08T17:32:23.551Z,10.10
2019-03-08T17:34:16.529Z,10.15
2019-03-08T17:35:16.593Z,10.13
2019-03-08T17:37:09.577Z,10.17
2019-03-08T17:38:09.626Z,10.16
2019-03-08T17:40:02.606Z,10.15
2019-03-08T17:41:02.659Z,10.15
2019-03-08T17:42:55.647Z,10.17
2019-03-08T17:43:55.692Z,10.13
2019-03-08T17:45:48.705Z,10.16
2019-03-08T17:46:48.737Z,10.13
2019-03-08T17:48:41.713Z,10.13
2019-03-08T17:49:41.798Z,10.09
2019-03-08T17:51:34.760Z,10.07
2019-03-08T17:52:34.805Z,10.13
2019-03-08T17:54:27.797Z,9.97
2019-03-08T17:55:27.850Z,9.99
2019-03-08T17:57:20.848Z,9.94
2019-03-08T17:58:20.894Z,9.89
2019-03-08T18:00:13.875Z,9.94
2019-03-08T18:01:13.935Z,9.89
2019-03-08T18:03:07.435Z,9.86
2019-03-08T18:04:07.473Z,9.89
2019-03-08T18:06:00.485Z,9.94
2019-03-08T18:07:00.515Z,9.95
2019-03-08T18:08:53.512Z,9.87
2019-03-08T18:09:53.554Z,9.87
2019-03-08T18:11:46.564Z,9.94
2019-03-08T18:12:46.605Z,9.95
2019-03-08T18:14:39.595Z,9.95
2019-03-08T18:15:39.652Z,9.97
2019-03-08T18:17:32.636Z,9.98
2019-03-08T18:18:32.686Z,9.92
2019-03-08T18:20:25.676Z,9.95
2019-03-08T18:21:25.727Z,9.91
2019-03-08T18:23:18.718Z,9.87
2019-03-08T18:24:23.494Z,9.83
2019-03-08T18:26:11.749Z,9.80
2019-03-08T18:27:11.790Z,9.83
2019-03-08T18:29:04.847Z,9.87
2019-03-08T18:30:04.825Z,9.77
2019-03-08T18:31:57.814Z,9.79
2019-03-08T18:32:57.863Z,9.82
2019-03-08T18:34:50.858Z,9.79
2019-03-08T18:35:50.904Z,9.74
2019-03-08T18:37:43.893Z,9.79
2019-03-08T18:38:43.946Z,9.80
2019-03-08T18:40:36.921Z,9.76
2019-03-08T18:41:36.978Z,9.82
2019-03-08T18:43:29.965Z,9.74
2019-03-08T18:44:30.013Z,9.77
2019-03-08T18:46:23.027Z,9.76
2019-03-08T18:47:23.042Z,9.72
2019-03-08T18:49:16.277Z,9.76
2019-03-08T18:50:16.087Z,9.72
2019-03-08T18:52:09.063Z,9.68
2019-03-08T18:53:09.133Z,9.55
2019-03-08T18:55:02.131Z,9.64
2019-03-08T18:56:02.167Z,9.61
2019-03-08T18:57:55.141Z,9.62